Time;durP1;ratioP1;P1;durP2;ratioP2;P2;SDS_P1;SDS_P2;PMS_P1;PMS_P2;Temp;Humidity;BMP_temperature;BMP_pressure;BME280_temperature;BME280_humidity;BME280_pressure;Samples;Min_cycle;Max_cycle;Signal;HPM_P1;HPM_P2
2023/03/16 00:00:52;;;;;;;4.47;1.50;;;4.10;99.90;;;;;;4982044;28;20419;-71
2023/03/16 00:03:18;;;;;;;7.67;1.70;;;4.10;99.90;;;;;;4989873;28;20041;-71
2023/03/16 00:05:46;;;;;;;3.95;1.55;;;4.10;99.90;;;;;;4972122;28;20504;-71
2023/03/16 00:08:12;;;;;;;10.30;1.77;;;4.10;99.90;;;;;;4978131;28;20626;-71
2023/03/16 00:10:38;;;;;;;3.83;1.65;;;4.10;99.90;;;;;;4983183;28;20060;-72
2023/03/16 00:13:03;;;;;;;7.07;1.80;;;4.10;99.90;;;;;;4980318;28;20499;-72
2023/03/16 00:15:29;;;;;;;5.50;2.20;;;4.10;99.90;;;;;;4979363;28;20054;-72
2023/03/16 00:17:55;;;;;;;8.10;1.77;;;4.20;99.90;;;;;;4984358;28;20054;-72
2023/03/16 00:20:21;;;;;;;4.30;2.07;;;4.20;99.90;;;;;;4999483;28;20147;-72
2023/03/16 00:22:47;;;;;;;4.85;1.70;;;4.20;99.90;;;;;;4984387;28;20542;-72
2023/03/16 00:25:13;;;;;;;4.17;1.50;;;4.20;99.90;;;;;;4975051;28;20050;-72
2023/03/16 00:27:40;;;;;;;4.93;1.63;;;4.20;99.90;;;;;;4994380;28;20515;-72
2023/03/16 00:30:06;;;;;;;4.45;1.50;;;4.20;99.90;;;;;;4997941;28;20042;-72
2023/03/16 00:32:33;;;;;;;4.30;1.70;;;4.20;99.90;;;;;;4981089;28;20160;-72
2023/03/16 00:35:03;;;;;;;3.08;1.60;;;4.20;99.90;;;;;;4980247;28;20069;-72
2023/03/16 00:37:29;;;;;;;3.28;1.63;;;4.30;99.90;;;;;;4977909;28;20049;-72
2023/03/16 00:39:56;;;;;;;4.07;2.15;;;4.30;99.90;;;;;;4978485;28;20156;-72
2023/03/16 00:42:26;;;;;;;3.40;1.60;;;4.30;99.90;;;;;;4980497;28;20108;-72
2023/03/16 00:45:01;;;;;;;8.13;2.20;;;4.30;99.90;;;;;;4985358;28;20056;-72
2023/03/16 00:47:29;;;;;;;5.03;1.85;;;4.30;99.90;;;;;;4986056;28;20049;-72
2023/03/16 00:49:55;;;;;;;6.70;1.73;;;4.30;99.90;;;;;;4984731;28;20061;-72
2023/03/16 00:52:22;;;;;;;9.03;1.53;;;4.30;99.90;;;;;;5005683;28;20088;-72
2023/03/16 00:54:48;;;;;;;9.63;1.75;;;4.40;99.90;;;;;;5001632;28;20042;-72
2023/03/16 00:57:20;;;;;;;3.83;1.98;;;4.40;99.90;;;;;;4981709;28;20338;-72
2023/03/16 00:59:46;;;;;;;2.97;1.63;;;4.40;99.90;;;;;;4989641;28;20125;-72
2023/03/16 01:02:14;;;;;;;2.88;1.60;;;4.40;99.90;;;;;;4989805;28;20058;-72
2023/03/16 01:04:41;;;;;;;5.70;1.63;;;4.30;99.90;;;;;;4984514;28;20053;-72
2023/03/16 01:07:11;;;;;;;3.83;1.65;;;4.40;99.90;;;;;;4980790;28;20038;-72
2023/03/16 01:09:37;;;;;;;3.13;1.45;;;4.30;99.90;;;;;;5000600;28;20049;-72
2023/03/16 01:12:05;;;;;;;;;;;4.30;99.90;;;;;;5004341;28;20459;-72
2023/03/16 01:14:34;;;;;;;6.28;2.28;;;4.30;99.90;;;;;;4979977;28;19925;-72
2023/03/16 01:17:00;;;;;;;3.55;1.85;;;4.30;99.90;;;;;;4982564;28;20054;-72
2023/03/16 01:19:27;;;;;;;4.90;1.65;;;4.30;99.90;;;;;;4986536;28;20076;-72
2023/03/16 01:21:52;;;;;;;3.50;1.67;;;4.30;99.90;;;;;;5003180;28;20384;-71
2023/03/16 01:24:18;;;;;;;4.70;1.87;;;4.30;99.90;;;;;;4985033;28;20049;-71
2023/03/16 01:26:44;;;;;;;5.43;1.70;;;4.20;99.90;;;;;;4987121;28;20089;-72
2023/03/16 01:29:11;;;;;;;3.70;1.70;;;4.20;99.90;;;;;;4972967;28;20112;-71
2023/03/16 01:31:37;;;;;;;4.38;1.45;;;4.20;99.90;;;;;;5003696;28;20050;-71
2023/03/16 01:34:03;;;;;;;5.15;1.58;;;4.20;99.90;;;;;;4985651;28;20049;-71
2023/03/16 01:36:30;;;;;;;3.40;1.90;;;4.20;99.90;;;;;;5002149;28;20439;-71
2023/03/16 01:38:56;;;;;;;2.95;1.70;;;4.20;99.90;;;;;;4987729;28;20046;-71
2023/03/16 01:41:22;;;;;;;3.75;2.03;;;4.20;99.90;;;;;;4983703;28;20030;-72
2023/03/16 01:43:50;;;;;;;4.83;2.43;;;4.20;99.90;;;;;;4969652;28;20056;-72
2023/03/16 01:46:23;;;;;;;5.90;1.88;;;4.20;99.90;;;;;;5000738;28;20100;-72
2023/03/16 01:49:00;;;;;;;5.50;1.48;;;4.20;99.90;;;;;;4985619;28;20522;-72
2023/03/16 01:51:40;;;;;;;3.03;1.75;;;4.20;99.90;;;;;;4979582;28;20037;-71
2023/03/16 01:54:23;;;;;;;3.42;1.45;;;4.20;99.90;;;;;;4985581;28;20385;-72
2023/03/16 01:56:54;;;;;;;5.45;2.03;;;4.20;99.90;;;;;;4978512;28;20203;-71
2023/03/16 01:59:23;;;;;;;9.10;1.95;;;4.20;99.90;;;;;;4986625;28;20077;-72
2023/03/16 02:01:50;;;;;;;3.30;1.73;;;4.20;99.90;;;;;;5003877;28;20050;-72
2023/03/16 02:04:23;;;;;;;11.20;2.20;;;4.20;99.90;;;;;;5006415;28;20044;-72
2023/03/16 02:06:50;;;;;;;5.05;2.13;;;4.20;99.90;;;;;;4999578;28;20034;-72
2023/03/16 02:09:17;;;;;;;;;;;4.20;99.90;;;;;;4984287;28;20300;-73
2023/03/16 02:11:42;;;;;;;3.78;1.98;;;4.20;99.90;;;;;;4972204;28;19925;-71
2023/03/16 02:14:11;;;;;;;7.00;1.83;;;4.20;99.90;;;;;;4983653;28;20508;-71
2023/03/16 02:16:37;;;;;;;4.32;1.75;;;4.30;99.90;;;;;;4982871;28;20045;-72
2023/03/16 02:19:11;;;;;;;3.42;2.03;;;4.30;99.90;;;;;;4986547;28;20392;-72
2023/03/16 02:22:05;;;;;;;5.30;2.00;;;4.30;99.90;;;;;;4989866;28;20046;-72
2023/03/16 02:24:31;;;;;;;4.32;1.90;;;4.30;99.90;;;;;;4982388;28;20209;-72
2023/03/16 02:27:10;;;;;;;3.20;1.80;;;4.30;99.90;;;;;;4990289;28;20060;-72
2023/03/16 02:29:58;;;;;;;4.80;2.40;;;4.30;99.90;;;;;;4986099;28;20037;-72
2023/03/16 02:32:25;;;;;;;3.58;1.88;;;4.30;99.90;;;;;;4987686;28;20443;-72
2023/03/16 02:34:51;;;;;;;4.88;2.00;;;4.40;99.90;;;;;;4988626;28;20258;-72
2023/03/16 02:37:20;;;;;;;4.50;2.05;;;4.40;99.90;;;;;;4987062;28;20037;-72
2023/03/16 02:39:46;;;;;;;6.13;1.75;;;4.40;99.90;;;;;;5000568;28;20057;-73
2023/03/16 02:42:16;;;;;;;5.97;2.07;;;4.40;99.90;;;;;;4992373;28;20496;-72
2023/03/16 02:44:45;;;;;;;3.88;2.22;;;4.40;99.90;;;;;;4981579;28;20514;-72
2023/03/16 02:47:37;;;;;;;6.72;2.03;;;4.40;99.90;;;;;;4995847;28;20049;-73
2023/03/16 02:50:05;;;;;;;6.95;2.03;;;4.50;99.90;;;;;;4980408;28;20095;-71
2023/03/16 02:52:36;;;;;;;2.60;1.77;;;4.50;99.90;;;;;;4979989;28;20356;-72
2023/03/16 02:55:03;;;;;;;4.93;1.80;;;4.40;99.90;;;;;;4978120;28;20119;-72
2023/03/16 02:57:30;;;;;;;4.63;2.10;;;4.50;99.90;;;;;;4999307;28;20415;-72
2023/03/16 02:59:56;;;;;;;5.00;2.28;;;4.50;99.90;;;;;;4987777;28;20057;-71
2023/03/16 03:04:58;;;;;;;4.20;2.28;;;4.50;99.90;;;;;;5001719;28;20082;-69
2023/03/16 03:07:30;;;;;;;5.13;2.30;;;4.50;99.90;;;;;;5017266;28;20603;-69
2023/03/16 03:09:56;;;;;;;4.63;2.45;;;4.50;99.90;;;;;;5003390;28;20108;-69
2023/03/16 03:12:21;;;;;;;5.43;2.33;;;4.50;99.90;;;;;;5001687;28;20080;-69
2023/03/16 03:14:47;;;;;;;5.17;2.53;;;4.50;99.90;;;;;;5004486;28;20045;-69
2023/03/16 03:17:13;;;;;;;4.57;2.43;;;4.50;99.90;;;;;;5000192;28;20509;-69
2023/03/16 03:19:39;;;;;;;6.30;2.63;;;4.60;99.90;;;;;;4998229;28;20042;-69
2023/03/16 03:22:07;;;;;;;5.77;2.93;;;4.60;99.90;;;;;;5004820;28;20117;-69
2023/03/16 03:24:33;;;;;;;4.35;2.35;;;4.60;99.90;;;;;;5001244;28;20073;-69
2023/03/16 03:27:04;;;;;;;6.00;2.83;;;4.60;99.90;;;;;;5008120;28;20103;-69
2023/03/16 03:29:33;;;;;;;5.32;2.53;;;4.60;99.90;;;;;;5005032;28;20050;-69
2023/03/16 03:32:05;;;;;;;6.22;2.40;;;4.60;99.90;;;;;;5007139;28;20038;-69
2023/03/16 03:34:34;;;;;;;5.25;2.40;;;4.60;99.90;;;;;;5003416;28;20448;-69
2023/03/16 03:37:02;;;;;;;3.80;2.45;;;4.60;99.90;;;;;;5006479;28;20041;-69
2023/03/16 03:39:39;;;;;;;4.97;2.67;;;4.70;99.90;;;;;;5005053;28;20613;-68
2023/03/16 03:42:05;;;;;;;6.82;2.47;;;4.60;99.90;;;;;;5001331;28;20057;-69
2023/03/16 03:44:33;;;;;;;4.78;3.17;;;4.60;99.90;;;;;;5002785;28;20049;-69
2023/03/16 03:46:59;;;;;;;7.38;3.38;;;4.60;99.90;;;;;;5008548;28;20038;-69
2023/03/16 03:49:25;;;;;;;7.63;3.03;;;4.70;99.90;;;;;;5001823;28;20182;-69
2023/03/16 03:51:54;;;;;;;6.22;2.53;;;4.70;99.90;;;;;;5003347;28;20360;-69
2023/03/16 03:54:20;;;;;;;10.63;2.70;;;4.70;99.90;;;;;;5005721;28;20415;-69
2023/03/16 03:56:46;;;;;;;7.90;3.10;;;4.70;99.90;;;;;;5005610;28;20068;-69
2023/03/16 03:59:12;;;;;;;4.10;2.47;;;4.70;99.90;;;;;;5005860;28;20455;-69
2023/03/16 04:01:37;;;;;;;5.67;2.63;;;4.70;99.90;;;;;;5004020;28;20045;-68
2023/03/16 04:04:03;;;;;;;12.20;2.63;;;4.70;99.90;;;;;;5000856;28;20049;-68
2023/03/16 04:06:31;;;;;;;4.80;2.70;;;4.70;99.90;;;;;;5004151;28;20042;-69
2023/03/16 04:08:56;;;;;;;13.18;2.97;;;4.70;99.90;;;;;;5002703;28;20088;-69
2023/03/16 04:11:22;;;;;;;7.20;2.77;;;4.70;99.90;;;;;;4999723;28;20054;-68
2023/03/16 04:13:50;;;;;;;10.40;2.70;;;4.70;99.90;;;;;;5020746;28;20037;-69
2023/03/16 04:16:16;;;;;;;6.95;2.97;;;4.70;99.90;;;;;;5005525;28;20092;-69
2023/03/16 04:18:41;;;;;;;7.07;3.00;;;4.70;99.90;;;;;;5007168;28;20439;-69
2023/03/16 04:21:13;;;;;;;8.13;3.00;;;4.70;99.90;;;;;;5005888;28;20042;-69
2023/03/16 04:23:39;;;;;;;13.50;2.88;;;4.70;99.90;;;;;;5006120;28;20060;-69
2023/03/16 04:26:04;;;;;;;9.07;2.93;;;4.70;99.90;;;;;;5002467;28;20034;-69
2023/03/16 04:28:31;;;;;;;6.37;2.87;;;4.80;99.90;;;;;;5002949;28;20042;-69
2023/03/16 04:31:01;;;;;;;;;;;4.80;99.90;;;;;;5004675;28;20444;-69
2023/03/16 04:33:26;;;;;;;5.47;2.65;;;4.70;99.90;;;;;;5002560;28;20297;-69
2023/03/16 04:35:52;;;;;;;5.10;2.70;;;4.70;99.90;;;;;;5004324;28;20060;-69
2023/03/16 04:38:17;;;;;;;10.10;3.47;;;4.70;99.90;;;;;;4999852;28;20038;-69
2023/03/16 04:40:43;;;;;;;9.20;3.10;;;4.70;99.90;;;;;;5005283;28;20048;-69
2023/03/16 04:43:09;;;;;;;5.47;2.90;;;4.70;99.90;;;;;;5002166;28;20520;-69
2023/03/16 04:45:35;;;;;;;11.23;3.33;;;4.80;99.90;;;;;;5002869;28;20062;-69
2023/03/16 04:48:00;;;;;;;5.63;3.27;;;4.70;99.90;;;;;;5006116;28;20554;-69
2023/03/16 04:50:26;;;;;;;5.77;3.23;;;4.80;99.90;;;;;;5002772;28;20116;-69
2023/03/16 04:52:51;;;;;;;7.03;2.87;;;4.70;99.90;;;;;;5006080;28;20076;-69
2023/03/16 04:55:17;;;;;;;6.37;3.33;;;4.70;99.90;;;;;;4999183;28;20110;-69
2023/03/16 04:57:43;;;;;;;5.57;3.33;;;4.70;99.90;;;;;;5003685;28;20128;-69
2023/03/16 05:00:13;;;;;;;5.90;3.40;;;4.70;99.90;;;;;;5003946;28;20083;-69
2023/03/16 05:02:39;;;;;;;10.27;3.60;;;4.80;99.90;;;;;;4986269;28;20185;-69
2023/03/16 05:05:05;;;;;;;8.63;4.00;;;4.70;99.90;;;;;;5007087;28;20112;-70
2023/03/16 05:07:31;;;;;;;10.00;3.80;;;4.70;99.90;;;;;;5003594;28;20694;-69
2023/03/16 05:09:57;;;;;;;11.13;3.83;;;4.70;99.90;;;;;;5004773;28;20037;-69
2023/03/16 05:12:22;;;;;;;8.97;4.17;;;4.70;99.90;;;;;;5006297;28;20038;-69
2023/03/16 05:14:48;;;;;;;6.93;3.70;;;4.70;99.90;;;;;;5004079;28;20065;-69
2023/03/16 05:17:13;;;;;;;7.60;3.97;;;4.70;99.90;;;;;;5009489;28;20034;-69
2023/03/16 05:19:45;;;;;;;8.13;3.87;;;4.70;99.90;;;;;;4997063;28;20038;-69
2023/03/16 05:22:10;;;;;;;6.70;3.30;;;4.70;99.90;;;;;;5001684;28;20419;-70
2023/03/16 05:24:36;;;;;;;6.57;3.37;;;4.70;99.90;;;;;;5002383;28;20042;-69
2023/03/16 05:27:02;;;;;;;7.30;3.80;;;4.80;99.90;;;;;;5007666;28;20033;-70
2023/03/16 05:29:30;;;;;;;7.75;3.25;;;4.70;99.90;;;;;;5001549;28;20279;-69
2023/03/16 05:31:58;;;;;;;7.70;4.65;;;4.70;99.90;;;;;;5004224;28;20045;-69
2023/03/16 05:34:26;;;;;;;6.30;4.03;;;4.70;99.90;;;;;;5001809;28;20412;-69
2023/03/16 05:36:52;;;;;;;11.35;3.75;;;4.70;99.90;;;;;;4985276;28;20046;-69
2023/03/16 05:39:17;;;;;;;11.47;4.67;;;4.70;99.90;;;;;;5004419;28;20132;-70
2023/03/16 05:41:43;;;;;;;7.80;3.93;;;4.70;99.90;;;;;;5003686;28;20451;-69
2023/03/16 05:44:09;;;;;;;12.30;4.23;;;4.70;99.90;;;;;;5004352;28;20399;-69
2023/03/16 05:46:35;;;;;;;7.68;3.63;;;4.70;99.90;;;;;;5002288;28;20046;-69
2023/03/16 05:49:02;;;;;;;6.93;3.70;;;4.70;99.90;;;;;;5005891;28;20422;-69
2023/03/16 05:51:28;;;;;;;7.18;3.55;;;4.70;99.90;;;;;;5001984;28;20111;-69
2023/03/16 05:53:57;;;;;;;7.63;3.87;;;4.60;99.90;;;;;;5002487;28;20037;-69
2023/03/16 05:56:27;;;;;;;7.32;3.88;;;4.60;99.90;;;;;;5003934;28;20103;-69
2023/03/16 05:58:54;;;;;;;7.03;3.70;;;4.60;99.90;;;;;;5004701;28;20108;-70
2023/03/16 06:01:20;;;;;;;8.38;4.32;;;4.60;99.90;;;;;;4999726;28;20253;-69
2023/03/16 06:03:47;;;;;;;7.60;4.22;;;4.60;99.90;;;;;;5002971;28;20050;-72
2023/03/16 06:06:15;;;;;;;8.82;4.20;;;4.60;99.90;;;;;;5006519;28;20052;-70
2023/03/16 06:08:40;;;;;;;6.38;3.65;;;4.60;99.90;;;;;;5002712;28;20049;-69
2023/03/16 06:11:06;;;;;;;8.30;3.73;;;4.60;99.90;;;;;;5005644;28;20026;-73
2023/03/16 06:13:32;;;;;;;9.83;3.83;;;4.50;99.90;;;;;;5006722;28;20042;-73
2023/03/16 06:15:58;;;;;;;7.13;4.13;;;4.60;99.90;;;;;;5000510;28;20336;-71
2023/03/16 06:18:23;;;;;;;7.63;3.87;;;4.60;99.90;;;;;;4998058;28;20041;-71
2023/03/16 06:20:52;;;;;;;7.07;4.25;;;4.60;99.90;;;;;;4979209;28;20109;-72
2023/03/16 06:23:19;;;;;;;8.30;4.17;;;4.60;99.90;;;;;;5003015;28;20331;-71
2023/03/16 06:25:47;;;;;;;8.15;4.38;;;4.60;99.90;;;;;;4999287;28;20041;-75
2023/03/16 06:28:12;;;;;;;7.05;3.40;;;4.60;99.90;;;;;;5001139;28;20046;-71
2023/03/16 06:30:39;;;;;;;9.33;3.83;;;4.60;99.90;;;;;;5000628;28;20053;-71
2023/03/16 06:33:08;;;;;;;7.40;4.07;;;4.60;99.90;;;;;;4996731;28;20038;-75
2023/03/16 06:35:36;;;;;;;6.93;3.47;;;4.60;99.90;;;;;;5002366;28;20042;-75
2023/03/16 06:38:03;;;;;;;6.65;3.88;;;4.70;99.90;;;;;;5000184;28;20057;-73
2023/03/16 06:40:29;;;;;;;9.60;3.97;;;4.70;99.90;;;;;;4984340;28;20105;-69
2023/03/16 06:42:58;;;;;;;9.00;3.55;;;4.70;99.90;;;;;;4998321;28;20576;-69
2023/03/16 06:45:24;;;;;;;6.97;4.13;;;4.70;99.90;;;;;;5003862;28;20061;-69
2023/03/16 06:47:52;;;;;;;8.88;3.88;;;4.70;99.90;;;;;;5003686;28;20144;-69
2023/03/16 06:50:18;;;;;;;6.10;3.10;;;4.80;99.90;;;;;;4999337;28;20056;-69
2023/03/16 06:52:44;;;;;;;5.97;3.37;;;4.80;99.90;;;;;;5003154;28;20046;-69
2023/03/16 06:55:11;;;;;;;6.67;3.20;;;4.80;99.90;;;;;;5004473;28;20201;-76
2023/03/16 06:57:36;;;;;;;6.82;3.65;;;4.80;99.90;;;;;;4998275;28;20046;-73
2023/03/16 07:00:04;;;;;;;6.93;3.80;;;4.80;99.90;;;;;;4995546;28;20046;-70
2023/03/16 07:02:31;;;;;;;11.52;4.05;;;4.80;99.90;;;;;;4993466;28;20412;-74
2023/03/16 07:04:56;;;;;;;8.13;3.33;;;4.90;99.90;;;;;;4989984;28;20486;-70
2023/03/16 07:07:23;;;;;;;6.77;4.23;;;4.90;99.90;;;;;;4997357;28;20048;-71
2023/03/16 07:09:48;;;;;;;;;;;4.90;99.90;;;;;;5000380;28;20448;-73
2023/03/16 07:12:14;;;;;;;6.53;3.25;;;4.90;99.90;;;;;;5004870;28;19917;-70
2023/03/16 07:14:40;;;;;;;7.37;3.40;;;4.90;99.90;;;;;;4998485;28;20046;-71
2023/03/16 07:17:06;;;;;;;8.60;3.20;;;5.00;99.90;;;;;;5020183;28;20045;-71
2023/03/16 07:19:32;;;;;;;5.60;3.60;;;5.00;99.90;;;;;;5003206;28;20045;-70
2023/03/16 07:21:57;;;;;;;7.50;3.60;;;5.00;99.90;;;;;;5006969;28;20214;-72
2023/03/16 07:24:23;;;;;;;7.80;3.63;;;5.00;99.90;;;;;;5002831;28;20204;-72
2023/03/16 07:26:48;;;;;;;8.37;4.20;;;5.10;99.90;;;;;;4986983;28;20042;-75
2023/03/16 07:29:15;;;;;;;7.20;3.87;;;5.10;99.90;;;;;;5004604;28;20046;-74
2023/03/16 07:31:41;;;;;;;6.90;3.30;;;5.10;99.90;;;;;;5004444;28;20057;-75
2023/03/16 07:34:10;;;;;;;8.05;3.72;;;5.20;99.90;;;;;;4992331;28;20057;-72
2023/03/16 07:36:38;;;;;;;8.02;3.42;;;5.10;99.90;;;;;;5005554;28;20077;-74
2023/03/16 07:39:05;;;;;;;6.40;3.50;;;5.20;99.90;;;;;;5000981;28;20033;-73
2023/03/16 07:41:31;;;;;;;5.38;3.00;;;5.20;99.90;;;;;;5006197;28;20121;-74
2023/03/16 07:43:57;;;;;;;6.35;3.17;;;5.10;99.90;;;;;;5003746;28;20943;-72
2023/03/16 07:46:23;;;;;;;7.32;3.72;;;5.20;99.90;;;;;;5000596;28;20224;-74
2023/03/16 07:48:49;;;;;;;8.40;3.20;;;5.20;99.90;;;;;;5004059;28;20042;-74
2023/03/16 07:51:14;;;;;;;9.50;3.17;;;5.20;99.90;;;;;;4999043;28;20315;-68
2023/03/16 07:53:42;;;;;;;6.47;3.43;;;5.20;99.90;;;;;;5003959;28;20050;-68
2023/03/16 07:56:08;;;;;;;6.78;3.30;;;5.20;99.90;;;;;;5004185;28;20440;-69
2023/03/16 07:58:34;;;;;;;6.37;3.43;;;5.20;99.90;;;;;;5004973;28;20045;-68
2023/03/16 08:01:00;;;;;;;9.27;3.63;;;5.20;99.90;;;;;;5000167;28;20042;-68
2023/03/16 08:03:27;;;;;;;7.97;3.25;;;5.20;99.90;;;;;;5000675;28;20253;-68
2023/03/16 08:05:54;;;;;;;10.32;4.05;;;5.30;99.90;;;;;;5019613;28;20057;-69
2023/03/16 08:08:20;;;;;;;;;;;5.20;99.90;;;;;;5002481;28;20042;-68
2023/03/16 08:10:51;;;;;;;6.72;3.22;;;5.30;99.90;;;;;;5001951;28;20250;-69
2023/03/16 08:13:17;;;;;;;7.00;3.38;;;5.20;99.90;;;;;;5000696;28;20049;-68
2023/03/16 08:15:46;;;;;;;7.15;2.97;;;5.20;99.90;;;;;;5005849;28;20125;-68
2023/03/16 08:18:12;;;;;;;6.40;3.10;;;5.20;99.90;;;;;;5002496;28;20038;-69
2023/03/16 08:20:38;;;;;;;9.75;3.30;;;5.30;99.90;;;;;;5006612;28;20046;-68
2023/03/16 08:23:04;;;;;;;9.23;3.33;;;5.20;99.90;;;;;;5005581;28;20072;-68
2023/03/16 08:25:29;;;;;;;7.13;3.03;;;5.30;99.90;;;;;;5005627;28;20092;-69
2023/03/16 08:27:56;;;;;;;6.95;2.95;;;5.30;99.90;;;;;;5001833;28;20045;-69
2023/03/16 08:30:24;;;;;;;7.32;2.95;;;5.30;99.90;;;;;;4999236;28;20415;-68
2023/03/16 08:32:49;;;;;;;5.05;3.08;;;5.30;99.90;;;;;;5000639;28;20077;-68
2023/03/16 08:35:15;;;;;;;6.57;2.80;;;5.30;99.90;;;;;;5001447;28;20403;-68
2023/03/16 08:37:41;;;;;;;5.18;2.72;;;5.30;99.90;;;;;;5000978;28;20344;-68
2023/03/16 08:40:09;;;;;;;5.78;3.17;;;5.30;99.90;;;;;;5003683;28;20494;-68
2023/03/16 08:42:37;;;;;;;7.57;3.25;;;5.30;99.90;;;;;;4998447;28;20062;-69
2023/03/16 08:45:08;;;;;;;6.88;2.78;;;5.30;99.90;;;;;;4999804;28;20042;-68
2023/03/16 08:47:35;;;;;;;5.20;2.70;;;5.30;99.90;;;;;;4998517;28;20126;-68
2023/03/16 08:50:04;;;;;;;8.30;3.05;;;5.30;99.90;;;;;;5002714;28;20042;-68
2023/03/16 08:52:31;;;;;;;6.55;2.85;;;5.30;99.90;;;;;;5019284;28;20409;-68
2023/03/16 08:54:57;;;;;;;7.13;3.17;;;5.30;99.90;;;;;;4998771;28;20045;-68
2023/03/16 08:57:23;;;;;;;7.90;3.00;;;5.30;99.90;;;;;;5005324;28;20472;-68
2023/03/16 08:59:49;;;;;;;3.85;2.25;;;5.30;99.90;;;;;;5002657;28;20066;-68
2023/03/16 09:02:15;;;;;;;6.68;3.30;;;5.30;99.90;;;;;;5006433;28;20180;-68
2023/03/16 09:04:41;;;;;;;4.93;2.70;;;5.30;99.90;;;;;;5002882;28;20042;-68
2023/03/16 09:07:07;;;;;;;6.53;2.63;;;5.30;99.90;;;;;;4995947;28;20141;-69
2023/03/16 09:09:34;;;;;;;6.70;2.92;;;5.40;99.90;;;;;;5003431;28;20056;-69
2023/03/16 09:12:00;;;;;;;;;;;5.40;99.90;;;;;;5039140;23;20104;-67
2023/03/16 09:14:26;;;;;;;5.65;2.75;;;5.40;99.90;;;;;;4995641;28;19932;-70
2023/03/16 09:16:51;;;;;;;6.15;2.90;;;5.40;99.90;;;;;;4997670;28;20050;-67
2023/03/16 09:19:18;;;;;;;7.33;2.93;;;5.50;99.90;;;;;;4993439;28;20053;-67
2023/03/16 09:21:44;;;;;;;6.07;2.85;;;5.50;99.90;;;;;;4983569;28;20077;-71
2023/03/16 09:24:10;;;;;;;6.57;2.97;;;5.60;99.90;;;;;;4970644;28;20108;-68
2023/03/16 09:26:36;;;;;;;6.72;2.83;;;5.60;99.90;;;;;;4984658;28;20107;-68
2023/03/16 09:29:05;;;;;;;4.70;2.77;;;5.60;99.90;;;;;;4984856;28;20319;-68
2023/03/16 09:31:32;;;;;;;7.07;3.13;;;5.60;99.90;;;;;;4988711;28;20518;-68
2023/03/16 09:33:58;;;;;;;6.40;2.75;;;5.70;99.90;;;;;;4990602;28;20404;-68
2023/03/16 09:36:26;;;;;;;8.13;3.42;;;5.70;99.90;;;;;;4983364;28;20472;-70
2023/03/16 09:38:52;;;;;;;6.28;2.63;;;5.80;99.90;;;;;;4985888;28;20076;-71
2023/03/16 09:41:47;;;;;;;7.03;2.95;;;5.80;99.90;;;;;;4980390;28;20066;-68
2023/03/16 09:44:39;;;;;;;7.28;2.72;;;5.90;99.90;;;;;;4934503;28;20047;-70
2023/03/16 09:47:07;;;;;;;4.68;2.40;;;5.90;99.90;;;;;;4982337;28;20046;-69
2023/03/16 09:49:50;;;;;;;5.13;2.55;;;5.90;99.90;;;;;;4981271;28;20050;-70
2023/03/16 09:52:39;;;;;;;6.00;2.30;;;5.90;99.90;;;;;;4976731;28;20508;-69
2023/03/16 09:55:23;;;;;;;6.38;2.45;;;5.90;99.90;;;;;;4985257;28;20124;-69
2023/03/16 09:57:50;;;;;;;5.03;2.63;;;5.90;99.90;;;;;;4978922;28;20509;-69
2023/03/16 10:00:21;;;;;;;4.50;2.38;;;6.00;99.90;;;;;;4977568;28;20042;-70
2023/03/16 10:03:22;;;;;;;7.05;3.28;;;6.00;99.90;;;;;;4980866;28;20088;-69
2023/03/16 10:05:56;;;;;;;3.88;2.03;;;6.00;99.90;;;;;;4981577;28;20037;-70
2023/03/16 10:08:24;;;;;;;7.38;2.67;;;6.00;99.90;;;;;;4986934;28;20245;-70
2023/03/16 10:11:17;;;;;;;8.65;2.50;;;6.10;99.90;;;;;;4985082;28;20079;-69
2023/03/16 10:13:52;;;;;;;5.95;2.63;;;6.00;99.90;;;;;;4978845;28;20300;-69
2023/03/16 10:16:23;;;;;;;4.50;2.40;;;6.10;99.90;;;;;;4980801;28;20042;-70
2023/03/16 10:19:00;;;;;;;3.95;2.17;;;6.00;99.90;;;;;;4980449;28;20046;-70
2023/03/16 10:21:26;;;;;;;8.65;3.05;;;6.00;99.90;;;;;;4981946;28;20136;-70
2023/03/16 10:23:54;;;;;;;6.55;2.47;;;6.00;99.90;;;;;;4983259;28;20065;-70
2023/03/16 10:26:35;;;;;;;4.93;2.30;;;6.00;99.90;;;;;;4987298;28;20547;-69
2023/03/16 10:29:02;;;;;;;4.82;2.20;;;6.00;99.90;;;;;;4982938;28;20043;-70
2023/03/16 10:31:28;;;;;;;5.22;1.80;;;6.00;99.90;;;;;;4955961;28;20053;-70
2023/03/16 10:34:05;;;;;;;7.37;2.30;;;6.10;99.90;;;;;;4989480;28;20038;-69
2023/03/16 10:36:33;;;;;;;6.15;2.85;;;6.10;99.90;;;;;;4981816;28;20129;-70
2023/03/16 10:39:03;;;;;;;3.72;2.03;;;6.10;99.90;;;;;;4981945;28;20484;-70
2023/03/16 10:41:34;;;;;;;5.18;2.13;;;6.10;99.90;;;;;;4990795;28;20403;-69
2023/03/16 10:44:11;;;;;;;4.85;2.55;;;6.20;99.90;;;;;;4983838;28;20566;-69
2023/03/16 10:46:41;;;;;;;;;;;6.20;99.90;;;;;;4980836;28;20632;-69
2023/03/16 10:49:43;;;;;;;4.28;2.67;;;6.40;99.90;;;;;;4978406;28;19925;-69
2023/03/16 10:52:19;;;;;;;5.38;2.72;;;6.50;99.90;;;;;;4991752;28;20061;-69
2023/03/16 10:55:09;;;;;;;5.70;2.58;;;6.60;99.90;;;;;;4978301;28;20054;-69
2023/03/16 10:57:40;;;;;;;7.07;2.42;;;6.70;99.90;;;;;;4987858;28;20056;-69
2023/03/16 11:00:13;;;;;;;5.43;2.47;;;6.80;99.90;;;;;;4983446;28;20043;-70
2023/03/16 11:02:39;;;;;;;6.35;2.40;;;6.90;99.90;;;;;;4976731;28;20057;-70
2023/03/16 11:05:28;;;;;;;8.23;2.63;;;6.90;99.90;;;;;;4981071;28;20061;-70
2023/03/16 11:07:58;;;;;;;4.82;2.42;;;7.00;99.90;;;;;;4978373;28;20045;-70
2023/03/16 11:10:32;;;;;;;6.72;2.92;;;7.10;99.90;;;;;;4982764;28;20038;-70
2023/03/16 11:13:23;;;;;;;6.72;2.25;;;7.10;99.90;;;;;;4979004;28;20129;-70
2023/03/16 11:15:56;;;;;;;6.25;2.55;;;7.20;99.90;;;;;;4983101;28;20057;-70
2023/03/16 11:18:28;;;;;;;5.03;2.22;;;7.20;99.90;;;;;;4981892;28;20058;-70
2023/03/16 11:20:56;;;;;;;4.85;2.42;;;7.20;99.90;;;;;;4979604;28;20457;-70
2023/03/16 11:23:30;;;;;;;6.47;2.58;;;7.20;99.90;;;;;;4981300;28;20107;-70
2023/03/16 11:26:00;;;;;;;5.85;2.22;;;7.30;99.90;;;;;;4978085;28;20046;-70
2023/03/16 11:28:42;;;;;;;9.23;2.70;;;7.30;99.90;;;;;;4988480;28;20042;-70
2023/03/16 11:31:10;;;;;;;4.63;1.80;;;7.40;99.90;;;;;;4998441;28;20106;-70
2023/03/16 11:33:36;;;;;;;8.68;2.90;;;7.50;99.90;;;;;;4987597;28;20129;-70
2023/03/16 11:36:34;;;;;;;4.90;2.45;;;7.50;99.90;;;;;;4981810;28;20038;-70
2023/03/16 11:39:15;;;;;;;5.30;2.65;;;7.60;99.90;;;;;;4982886;28;20170;-70
2023/03/16 11:41:57;;;;;;;6.38;2.10;;;7.70;99.90;;;;;;4976984;28;20133;-70
2023/03/16 11:44:32;;;;;;;5.03;2.63;;;7.80;99.90;;;;;;4995892;28;20053;-70
2023/03/16 11:47:11;;;;;;;8.93;2.50;;;7.90;99.90;;;;;;4980346;28;20393;-70
2023/03/16 11:49:53;;;;;;;8.75;3.28;;;8.10;99.90;;;;;;4982517;28;20528;-70
2023/03/16 11:52:35;;;;;;;6.22;2.22;;;8.20;99.90;;;;;;4984959;28;20369;-70
2023/03/16 11:55:16;;;;;;;4.57;2.28;;;8.30;99.90;;;;;;4982116;28;20082;-70
2023/03/16 11:57:41;;;;;;;5.63;2.42;;;8.40;99.90;;;;;;4995037;28;20043;-70
2023/03/16 12:00:13;;;;;;;8.10;2.23;;;8.40;99.90;;;;;;4982801;28;20400;-70
2023/03/16 12:03:16;;;;;;;8.10;2.67;;;8.60;99.90;;;;;;4979540;28;20058;-70
2023/03/16 12:06:19;;;;;;;4.38;2.33;;;8.70;99.90;;;;;;4957046;28;20089;-70
2023/03/16 12:09:19;;;;;;;8.27;2.90;;;8.80;99.90;;;;;;4977483;28;20050;-70
2023/03/16 12:11:58;;;;;;;6.07;2.50;;;8.80;99.90;;;;;;4978992;28;20157;-70
2023/03/16 12:14:24;;;;;;;3.95;2.15;;;8.90;99.90;;;;;;4982016;28;20507;-70
2023/03/16 12:16:53;;;;;;;5.73;2.17;;;8.90;99.90;;;;;;4985029;28;20049;-70
2023/03/16 12:19:44;;;;;;;5.32;2.25;;;9.00;99.90;;;;;;4980199;28;20034;-69
2023/03/16 12:22:24;;;;;;;3.67;2.20;;;9.00;99.90;;;;;;4989749;28;20065;-70
2023/03/16 12:24:50;;;;;;;4.38;2.30;;;9.00;99.90;;;;;;4972312;28;20469;-70
2023/03/16 12:27:22;;;;;;;4.53;1.97;;;9.10;99.90;;;;;;4987074;28;20042;-70
2023/03/16 12:30:26;;;;;;;3.58;2.03;;;9.10;99.90;;;;;;4989746;28;20842;-70
2023/03/16 12:33:04;;;;;;;4.38;1.90;;;9.10;99.90;;;;;;4986506;28;20060;-70
2023/03/16 12:35:57;;;;;;;4.03;1.92;;;9.10;99.90;;;;;;4985433;28;20046;-70
2023/03/16 12:38:38;;;;;;;6.38;2.35;;;9.10;99.90;;;;;;4988412;28;20454;-70
2023/03/16 12:41:15;;;;;;;4.53;2.25;;;9.10;99.90;;;;;;4987452;28;20515;-70
2023/03/16 12:43:41;;;;;;;9.25;2.10;;;9.20;99.90;;;;;;4972930;28;20081;-70
2023/03/16 12:46:13;;;;;;;4.10;2.35;;;9.20;99.90;;;;;;4988635;28;20057;-70
2023/03/16 12:48:59;;;;;;;6.03;1.92;;;9.10;99.90;;;;;;4970163;28;20042;-69
2023/03/16 12:51:37;;;;;;;5.03;2.03;;;9.10;99.90;;;;;;5000181;28;20039;-69
2023/03/16 12:54:05;;;;;;;5.72;2.22;;;9.10;99.90;;;;;;4986610;28;20046;-70
2023/03/16 12:56:35;;;;;;;5.70;1.88;;;9.10;99.90;;;;;;4968257;28;20081;-70
2023/03/16 12:59:09;;;;;;;6.25;2.42;;;9.10;99.90;;;;;;4988309;28;20054;-69
2023/03/16 13:01:42;;;;;;;4.63;2.17;;;9.10;99.90;;;;;;4987287;28;20117;-70
2023/03/16 13:04:15;;;;;;;5.55;2.30;;;9.10;99.90;;;;;;4976314;28;20460;-70
2023/03/16 13:06:49;;;;;;;4.97;2.10;;;9.10;99.90;;;;;;4984209;28;20121;-69
2023/03/16 13:09:27;;;;;;;5.05;2.10;;;9.10;99.90;;;;;;4984413;28;21653;-70
2023/03/16 13:11:52;;;;;;;6.32;2.15;;;9.20;99.90;;;;;;4983425;28;20064;-70
2023/03/16 13:14:39;;;;;;;5.85;2.42;;;9.30;99.90;;;;;;4992443;28;20217;-70